Terminal Aerodrome Forecast
Issued by NWS

Home | Current Version | Previous Version | Text Only | Print | Product List | Glossary On
Versions: 1 2 3 4 5 6 7 8 9 10 11 12 13 14 15 16 17 18 19 20 21
000
FTUS43 KAPX 230221 CCA
TAFPLN
TAF COR
KPLN 230221Z 2302/2324 VRB04KT P6SM FEW025 SCT035 BKN070
     FM230500 11006KT P6SM BKN035
     FM230700 11006KT P6SM BKN025
     FM230900 11006KT P6SM VCSH BKN025
     FM232000 09010G18KT 5SM BR VCSH BKN025
     FM232300 07010G18KT 4SM BR VCSH OVC015=

USA.gov is the U.S. government's official web portal to all federal, state and local government web resources and services.